createdAt,value
2018-09-29T00:02:05.454Z,3.30
2018-09-29T00:04:34.203Z,3.20
2018-09-29T00:07:02.873Z,3.10
2018-09-29T00:09:30.764Z,3.10
2018-09-29T00:11:59.490Z,3.00
2018-09-29T00:14:28.346Z,3.00
2018-09-29T00:16:56.976Z,2.90
2018-09-29T00:19:25.658Z,2.80
2018-09-29T00:21:53.546Z,2.80
2018-09-29T00:24:22.119Z,2.70
2018-09-29T00:26:50.773Z,2.60
2018-09-29T00:29:19.470Z,2.60
2018-09-29T00:31:48.077Z,2.60
2018-09-29T00:34:16.832Z,2.50
2018-09-29T00:36:45.631Z,2.50
2018-09-29T00:39:14.368Z,2.40
2018-09-29T00:41:43.014Z,2.30
2018-09-29T00:44:11.610Z,2.20
2018-09-29T00:46:40.317Z,2.20
2018-09-29T00:49:08.924Z,2.10
2018-09-29T00:51:37.654Z,2.10
2018-09-29T00:54:06.264Z,2.10
2018-09-29T00:56:34.991Z,2.00
2018-09-29T00:59:03.595Z,2.00
2018-09-29T01:01:32.178Z,2.00
2018-09-29T01:04:00.820Z,1.90
2018-09-29T01:06:29.390Z,1.80
2018-09-29T01:08:58.097Z,1.90
2018-09-29T01:11:26.785Z,1.90
2018-09-29T01:13:55.374Z,1.80
2018-09-29T01:16:24.015Z,1.80
2018-09-29T01:18:51.879Z,1.80
2018-09-29T01:21:19.750Z,1.80
2018-09-29T01:23:47.597Z,1.80
2018-09-29T01:26:15.511Z,1.80
2018-09-29T01:28:43.322Z,1.80
2018-09-29T01:31:11.304Z,1.90
2018-09-29T01:33:39.166Z,1.90
2018-09-29T01:36:07.006Z,1.90
2018-09-29T01:38:34.961Z,1.90
2018-09-29T01:41:02.848Z,2.00
2018-09-29T01:43:30.729Z,2.00
2018-09-29T01:48:38.425Z,2.10
2018-09-29T01:51:06.376Z,2.10
2018-09-29T01:53:34.251Z,2.00
2018-09-29T01:56:02.283Z,2.00
2018-09-29T01:58:30.169Z,1.90
2018-09-29T02:00:58.078Z,1.90
2018-09-29T02:03:26.017Z,1.90
2018-09-29T02:05:53.871Z,1.90
2018-09-29T02:08:22.134Z,1.80
2018-09-29T02:10:50.040Z,1.80
2018-09-29T02:13:18.122Z,1.80
2018-09-29T02:15:45.992Z,1.80
2018-09-29T02:18:13.874Z,1.80
2018-09-29T02:20:56.461Z,1.80
2018-09-29T02:23:24.289Z,1.80
2018-09-29T02:25:52.319Z,1.70
2018-09-29T02:30:54.749Z,1.70
2018-09-29T02:33:23.041Z,1.70
2018-09-29T02:35:51.090Z,1.70
2018-09-29T02:38:19.010Z,1.70
2018-09-29T02:40:46.948Z,1.60
2018-09-29T02:43:14.972Z,1.60
2018-09-29T02:45:42.904Z,1.60
2018-09-29T02:48:10.944Z,1.50
2018-09-29T02:50:38.817Z,1.50
2018-09-29T02:53:06.954Z,1.40
2018-09-29T02:55:34.909Z,1.40
2018-09-29T02:58:03.379Z,1.30
2018-09-29T03:00:31.224Z,1.30
2018-09-29T03:02:59.100Z,1.30
2018-09-29T03:05:26.907Z,1.20
2018-09-29T03:07:54.967Z,1.20
2018-09-29T03:10:22.889Z,1.20
2018-09-29T03:12:50.888Z,1.20
2018-09-29T03:15:18.820Z,1.10
2018-09-29T03:17:46.900Z,1.10
2018-09-29T03:20:14.891Z,1.10
2018-09-29T03:22:42.780Z,1.00
2018-09-29T03:25:10.623Z,1.00
2018-09-29T03:27:38.669Z,0.90
2018-09-29T03:30:06.603Z,1.00
2018-09-29T03:32:34.496Z,0.90
2018-09-29T03:35:02.412Z,0.90
2018-09-29T03:37:30.293Z,0.90
2018-09-29T03:39:58.172Z,0.90
2018-09-29T03:42:26.130Z,0.90
2018-09-29T03:44:54.207Z,0.90
2018-09-29T03:47:22.041Z,0.90
2018-09-29T03:49:49.985Z,0.90
2018-09-29T03:52:17.960Z,0.90
2018-09-29T03:54:45.854Z,0.90
2018-09-29T03:57:13.748Z,0.90
2018-09-29T03:59:42.177Z,0.80
2018-09-29T04:02:10.272Z,0.80
2018-09-29T04:04:38.284Z,0.80
2018-09-29T04:07:06.328Z,0.70
2018-09-29T04:09:34.217Z,0.70
2018-09-29T04:12:02.355Z,0.60
2018-09-29T04:14:30.647Z,0.60
2018-09-29T04:16:58.638Z,0.60
2018-09-29T04:19:26.620Z,0.60
2018-09-29T04:21:54.729Z,0.60
2018-09-29T04:24:22.784Z,0.50
2018-09-29T04:26:50.988Z,0.50
2018-09-29T04:29:18.931Z,0.50
2018-09-29T04:31:47.085Z,0.50
2018-09-29T04:34:15.113Z,0.50
2018-09-29T04:36:43.661Z,0.40
2018-09-29T04:39:13.635Z,0.40
2018-09-29T04:41:41.717Z,0.40
2018-09-29T04:44:10.914Z,0.50
2018-09-29T04:46:39.599Z,0.50
2018-09-29T04:49:08.000Z,0.50
2018-09-29T04:51:36.065Z,0.60
2018-09-29T04:54:04.099Z,0.60
2018-09-29T04:56:32.751Z,0.60
2018-09-29T04:59:01.052Z,0.70
2018-09-29T05:01:29.046Z,0.70
2018-09-29T05:03:57.142Z,0.70
2018-09-29T05:06:25.544Z,0.80
2018-09-29T05:08:53.633Z,0.80
2018-09-29T05:11:21.897Z,0.80
2018-09-29T05:13:49.998Z,0.90
2018-09-29T05:16:18.164Z,0.90
2018-09-29T05:18:46.372Z,0.90
2018-09-29T05:21:14.344Z,0.90
2018-09-29T05:23:42.330Z,0.90
2018-09-29T05:26:10.341Z,0.90
2018-09-29T05:28:38.352Z,0.90
2018-09-29T05:31:06.492Z,0.90
2018-09-29T05:33:34.606Z,0.90
2018-09-29T05:36:02.525Z,0.90
2018-09-29T05:38:30.595Z,0.90
2018-09-29T05:40:58.655Z,1.00
2018-09-29T05:43:26.908Z,1.00
2018-09-29T05:45:55.011Z,1.10
2018-09-29T05:48:23.301Z,1.20
2018-09-29T05:50:51.682Z,1.20
2018-09-29T05:53:19.881Z,1.30
2018-09-29T05:58:35.128Z,1.50
2018-09-29T06:01:03.098Z,1.60
2018-09-29T06:03:31.103Z,1.80
2018-09-29T06:06:00.683Z,1.90
2018-09-29T06:08:30.506Z,2.00
2018-09-29T06:10:58.673Z,2.10
2018-09-29T06:13:27.618Z,2.20
2018-09-29T06:15:55.522Z,2.30
2018-09-29T06:18:23.360Z,2.40
2018-09-29T06:20:51.189Z,2.50
2018-09-29T06:23:19.462Z,2.60
2018-09-29T06:25:47.563Z,2.70
2018-09-29T06:28:15.459Z,2.80
2018-09-29T06:30:43.276Z,3.00
2018-09-29T06:33:11.244Z,3.10
2018-09-29T06:35:39.284Z,3.30
2018-09-29T06:38:07.245Z,3.50
2018-09-29T06:40:36.344Z,3.70
2018-09-29T06:45:46.427Z,4.00
2018-09-29T06:48:16.214Z,4.20
2018-09-29T06:50:46.753Z,4.40
2018-09-29T06:53:15.589Z,4.50
2018-09-29T06:55:45.684Z,4.70
2018-09-29T06:58:14.858Z,4.90
2018-09-29T07:08:49.601Z,5.60
2018-09-29T07:11:17.655Z,5.80
2018-09-29T07:13:45.633Z,5.90
2018-09-29T07:16:13.812Z,6.10
2018-09-29T07:18:41.658Z,6.20
2018-09-29T07:21:09.593Z,6.30
2018-09-29T07:23:37.633Z,6.30
2018-09-29T07:26:05.482Z,6.40
2018-09-29T07:28:33.445Z,6.50
2018-09-29T07:31:01.307Z,6.50
2018-09-29T07:33:29.289Z,6.60
2018-09-29T07:35:57.133Z,6.70
2018-09-29T07:38:25.252Z,6.90
2018-09-29T07:40:53.198Z,7.00
2018-09-29T07:43:21.367Z,7.20
2018-09-29T07:45:49.324Z,7.30
2018-09-29T07:48:17.454Z,7.40
2018-09-29T07:50:45.416Z,7.50
2018-09-29T07:53:13.445Z,7.50
2018-09-29T07:55:43.074Z,7.60
2018-09-29T07:58:11.035Z,7.60
2018-09-29T08:00:38.868Z,7.80
2018-09-29T08:03:07.133Z,7.90
2018-09-29T08:05:35.068Z,8.00
2018-09-29T08:08:02.974Z,8.20
2018-09-29T08:10:31.138Z,8.30
2018-09-29T08:12:59.989Z,8.40
2018-09-29T08:15:28.637Z,8.50
2018-09-29T08:17:56.503Z,8.60
2018-09-29T08:20:24.528Z,8.80
2018-09-29T08:22:52.414Z,8.90
2018-09-29T08:25:20.400Z,9.00
2018-09-29T08:27:48.714Z,9.00
2018-09-29T08:30:17.510Z,9.10
2018-09-29T08:32:46.255Z,9.20
2018-09-29T08:35:14.903Z,9.30
2018-09-29T08:37:43.846Z,9.40
2018-09-29T08:40:12.561Z,9.50
2018-09-29T08:42:41.292Z,9.50
2018-09-29T08:45:10.051Z,9.60
2018-09-29T12:58:35.905Z,12.40
2018-09-29T13:01:04.552Z,12.40
2018-09-29T13:03:33.232Z,12.30
2018-09-29T13:06:02.337Z,12.10
2018-09-29T13:08:30.943Z,12.00
2018-09-29T13:10:59.628Z,11.80
2018-09-29T13:13:28.791Z,11.80
2018-09-29T13:15:57.675Z,11.80
2018-09-29T13:18:26.421Z,11.80
2018-09-29T13:20:55.032Z,11.80
2018-09-29T13:23:23.594Z,11.80
2018-09-29T13:25:51.446Z,11.80
2018-09-29T13:28:20.178Z,11.80
2018-09-29T13:30:48.735Z,11.70
2018-09-29T13:33:17.430Z,11.60
2018-09-29T13:35:46.057Z,11.60
2018-09-29T13:38:14.623Z,11.60
2018-09-29T13:40:43.212Z,11.60
2018-09-29T13:43:11.944Z,11.80
2018-09-29T13:45:40.729Z,11.90
2018-09-29T13:48:09.320Z,12.20
2018-09-29T13:50:38.671Z,12.50
2018-09-29T13:53:07.480Z,13.00
2018-09-29T13:55:36.360Z,13.80
2018-09-29T13:58:05.245Z,14.80
2018-09-29T14:00:33.803Z,15.80
2018-09-29T14:03:02.617Z,16.60
2018-09-29T14:05:31.325Z,17.10
2018-09-29T14:08:00.100Z,17.00
2018-09-29T14:10:28.735Z,16.90
2018-09-29T14:12:57.502Z,16.50
2018-09-29T14:15:26.290Z,15.80
2018-09-29T14:17:54.906Z,15.00
2018-09-29T14:20:23.658Z,14.30
2018-09-29T14:22:52.521Z,13.70
2018-09-29T14:25:21.338Z,13.30
2018-09-29T14:27:50.131Z,12.80
2018-09-29T14:30:19.038Z,12.40
2018-09-29T14:32:48.120Z,12.20
2018-09-29T14:35:16.826Z,11.90
2018-09-29T14:37:45.914Z,11.70
2018-09-29T14:40:14.876Z,11.60
2018-09-29T14:42:44.378Z,11.50
2018-09-29T14:45:13.246Z,11.30
2018-09-29T14:47:42.127Z,11.20
2018-09-29T14:50:10.858Z,11.10
2018-09-29T14:52:39.703Z,11.10
2018-09-29T14:55:08.558Z,11.00
2018-09-29T14:57:37.243Z,11.00
2018-09-29T15:00:06.527Z,10.90
2018-09-29T15:02:35.471Z,10.90
2018-09-29T15:05:04.271Z,10.90
2018-09-29T15:07:33.016Z,10.80
2018-09-29T15:10:01.740Z,10.80
2018-09-29T15:12:30.461Z,10.70
2018-09-29T15:14:59.328Z,10.70
2018-09-29T15:17:28.009Z,10.70
2018-09-29T15:19:56.980Z,10.60
2018-09-29T15:22:26.556Z,10.60
2018-09-29T15:24:55.304Z,10.60
2018-09-29T15:27:23.394Z,10.60
2018-09-29T15:29:51.242Z,10.50
2018-09-29T15:32:19.949Z,10.50
2018-09-29T15:34:48.641Z,10.40
2018-09-29T15:37:17.416Z,10.40
2018-09-29T15:39:45.380Z,10.40
2018-09-29T15:42:13.250Z,10.40
2018-09-29T15:44:41.317Z,10.40
2018-09-29T15:47:10.163Z,10.40
2018-09-29T15:49:37.942Z,10.30
2018-09-29T15:52:06.791Z,10.30
2018-09-29T15:54:35.490Z,10.20
2018-09-29T15:57:04.343Z,10.10
2018-09-29T15:59:33.005Z,10.00
2018-09-29T16:02:00.900Z,10.00
2018-09-29T16:04:29.737Z,9.90
2018-09-29T16:06:57.797Z,9.80
2018-09-29T16:09:25.800Z,9.80
2018-09-29T16:11:54.042Z,9.70
2018-09-29T16:14:22.770Z,9.60
2018-09-29T16:16:51.507Z,9.50
2018-09-29T16:19:20.207Z,9.40
2018-09-29T16:21:48.261Z,9.30
2018-09-29T16:24:16.938Z,9.20
2018-09-29T16:26:46.462Z,9.10
2018-09-29T16:29:15.268Z,8.90
2018-09-29T16:31:43.180Z,8.90
2018-09-29T16:34:12.059Z,8.80
2018-09-29T16:36:40.018Z,8.70
2018-09-29T16:39:09.060Z,8.60
2018-09-29T16:41:37.077Z,8.50
2018-09-29T16:44:05.150Z,8.40
2018-09-29T16:46:33.882Z,8.30
2018-09-29T16:49:01.752Z,8.20
2018-09-29T16:51:29.640Z,8.10
2018-09-29T16:53:57.636Z,8.00
2018-09-29T16:56:25.569Z,7.90
2018-09-29T16:58:54.212Z,7.80
2018-09-29T17:01:22.494Z,7.70
2018-09-29T17:03:50.528Z,7.70
2018-09-29T17:06:18.374Z,7.60
2018-09-29T17:08:47.133Z,7.60
2018-09-29T17:11:14.994Z,7.50
2018-09-29T17:13:42.970Z,7.40
2018-09-29T17:16:10.889Z,7.40
2018-09-29T17:18:38.901Z,7.30
2018-09-29T17:21:06.802Z,7.20
2018-09-29T17:23:35.658Z,7.20
2018-09-29T17:26:03.600Z,7.10
2018-09-29T17:28:31.492Z,7.00
2018-09-29T17:31:00.464Z,6.90
2018-09-29T17:33:28.293Z,6.90
2018-09-29T17:35:56.322Z,6.80
2018-09-29T17:38:24.342Z,6.80
2018-09-29T17:40:52.961Z,6.70
2018-09-29T17:43:20.815Z,6.60
2018-09-29T17:45:48.632Z,6.50
2018-09-29T17:48:16.878Z,6.40
2018-09-29T17:50:44.686Z,6.40
2018-09-29T17:53:12.516Z,6.30
2018-09-29T17:55:40.343Z,6.20
2018-09-29T17:58:08.208Z,6.10
2018-09-29T18:00:36.082Z,6.00
2018-09-29T18:03:05.143Z,6.00
2018-09-29T18:05:33.619Z,5.90
2018-09-29T18:08:01.425Z,5.80
2018-09-29T18:10:29.273Z,5.70
2018-09-29T18:12:58.076Z,5.60
2018-09-29T18:15:26.672Z,5.60
2018-09-29T18:17:55.219Z,5.50
2018-09-29T18:20:23.869Z,5.50
2018-09-29T18:22:52.525Z,5.40
2018-09-29T18:25:21.169Z,5.40
2018-09-29T18:27:49.044Z,5.30
2018-09-29T18:30:17.655Z,5.30
2018-09-29T18:32:46.287Z,5.20
2018-09-29T18:35:15.306Z,5.20
2018-09-29T18:37:44.090Z,5.20
2018-09-29T18:40:15.564Z,5.10
2018-09-29T18:42:44.675Z,5.10
2018-09-29T18:45:13.302Z,5.10
2018-09-29T18:47:42.433Z,5.10
2018-09-29T18:50:11.563Z,5.10
2018-09-29T18:52:41.479Z,5.20
2018-09-29T18:55:10.611Z,5.20
2018-09-29T18:57:39.212Z,5.20
2018-09-29T19:00:08.272Z,5.10
2018-09-29T19:02:36.945Z,5.10
2018-09-29T19:05:05.622Z,5.10
2018-09-29T19:07:34.346Z,5.10
2018-09-29T19:10:03.307Z,5.00
2018-09-29T19:12:31.948Z,5.00
2018-09-29T19:15:00.617Z,4.90
2018-09-29T19:17:29.476Z,4.90
2018-09-29T19:19:58.174Z,4.80
2018-09-29T19:22:26.809Z,4.80
2018-09-29T19:27:43.632Z,4.70
2018-09-29T19:30:12.212Z,4.60
2018-09-29T19:32:40.847Z,4.50
2018-09-29T19:35:15.285Z,4.40
2018-09-29T19:40:44.728Z,4.30
2018-09-29T19:43:13.847Z,4.30
2018-09-29T19:45:44.995Z,4.10
2018-09-29T19:48:21.818Z,4.10
2018-09-29T19:50:50.620Z,4.00
2018-09-29T19:53:22.928Z,3.90
2018-09-29T19:56:00.184Z,3.80
2018-09-29T19:58:35.133Z,3.80
2018-09-29T20:01:05.707Z,3.70
2018-09-29T20:03:39.318Z,3.70
2018-09-29T20:06:13.131Z,3.70
2018-09-29T20:14:29.022Z,3.60
2018-09-29T20:16:59.217Z,3.60
2018-09-29T20:19:34.314Z,3.60
2018-09-29T20:25:00.298Z,3.50
2018-09-29T20:27:29.282Z,3.40
2018-09-29T20:29:58.468Z,3.40
2018-09-29T20:32:50.070Z,3.40
2018-09-29T20:38:09.102Z,3.30
2018-09-29T20:41:08.867Z,3.20
2018-09-29T20:43:40.441Z,3.20
2018-09-29T20:46:10.758Z,3.20
2018-09-29T20:48:39.616Z,3.20
2018-09-29T20:51:08.631Z,3.20
2018-09-29T20:56:25.362Z,3.10
2018-09-29T20:58:56.044Z,3.10
2018-09-29T21:01:25.789Z,3.10
2018-09-29T21:03:55.153Z,3.10
2018-09-29T21:06:24.168Z,3.10
2018-09-29T21:08:53.116Z,3.10
2018-09-29T21:11:22.530Z,3.00
2018-09-29T21:13:51.314Z,3.00
2018-09-29T21:16:20.096Z,2.90
2018-09-29T21:18:49.499Z,2.90
2018-09-29T21:21:18.803Z,2.90
2018-09-29T21:23:48.207Z,2.80
2018-09-29T21:26:18.310Z,2.80
2018-09-29T21:28:48.261Z,2.70
2018-09-29T21:31:17.765Z,2.70
2018-09-29T21:33:47.182Z,2.70
2018-09-29T21:36:16.425Z,2.60
2018-09-29T21:38:45.413Z,2.60
2018-09-29T21:41:14.993Z,2.60
2018-09-29T21:43:44.008Z,2.60
2018-09-29T21:46:13.208Z,2.50
2018-09-29T21:48:42.942Z,2.60
2018-09-29T21:51:11.735Z,2.60
2018-09-29T21:53:40.537Z,2.50
2018-09-29T21:56:09.636Z,2.50
2018-09-29T21:58:38.171Z,2.50
2018-09-29T22:01:13.002Z,2.50
2018-09-29T22:03:40.890Z,2.50
2018-09-29T22:06:09.624Z,2.40
2018-09-29T22:08:38.844Z,2.40
2018-09-29T22:11:07.511Z,2.40
2018-09-29T22:13:35.503Z,2.40
2018-09-29T22:16:04.147Z,2.40
2018-09-29T22:18:32.875Z,2.30
2018-09-29T22:21:01.607Z,2.30
2018-09-29T22:23:30.253Z,2.20
2018-09-29T22:25:58.844Z,2.20
2018-09-29T22:28:27.426Z,2.20
2018-09-29T22:30:56.118Z,2.20
2018-09-29T22:33:24.769Z,2.20
2018-09-29T22:35:53.356Z,2.20
2018-09-29T22:38:22.179Z,2.20
2018-09-29T22:40:50.871Z,2.20
2018-09-29T22:43:19.494Z,2.20
2018-09-29T22:45:48.206Z,2.20
2018-09-29T22:48:16.849Z,2.20
2018-09-29T22:50:45.581Z,2.20
2018-09-29T22:53:14.201Z,2.20
2018-09-29T22:55:42.916Z,2.20
2018-09-29T22:58:11.476Z,2.20
2018-09-29T23:00:40.048Z,2.20
2018-09-29T23:03:08.688Z,2.20
2018-09-29T23:05:37.256Z,2.30
2018-09-29T23:08:06.282Z,2.30
2018-09-29T23:10:34.951Z,2.30
2018-09-29T23:13:03.571Z,2.30
2018-09-29T23:15:32.248Z,2.30
2018-09-29T23:18:00.831Z,2.30
2018-09-29T23:20:29.400Z,2.30
2018-09-29T23:22:57.990Z,2.30
2018-09-29T23:25:26.596Z,2.30
2018-09-29T23:27:55.314Z,2.30
2018-09-29T23:30:24.050Z,2.30
2018-09-29T23:32:52.702Z,2.30
2018-09-29T23:35:21.346Z,2.30
2018-09-29T23:37:49.983Z,2.30
2018-09-29T23:40:18.674Z,2.30
2018-09-29T23:42:47.378Z,2.40
2018-09-29T23:45:16.062Z,2.30
2018-09-29T23:47:44.868Z,2.30
2018-09-29T23:50:13.502Z,2.30
2018-09-29T23:52:42.142Z,2.30
2018-09-29T23:55:10.821Z,2.30
2018-09-29T23:57:39.505Z,2.30
